SAS53T EKCH-EKVG
Flight info
| Callsign | SAS53T |
|---|---|
| Flight time | N/A |
| Altitude | 38000 |
| Route | GOLGA DCT AMSEV DCT ZOL DCT GUNPA/M077F380 DCT ROBUR |
| Aircraft | A20N/M-SDE3FGIJ1RWXY/ALB1 |
Departure
| Time | 2026-04-30 15:09 |
|---|---|
| Airport | Copenhagen Kastrup Airport (EKCH) |
Arrival
| Time | N/A |
|---|---|
| Airport | Vágar Airport (EKVG) |
| Time | Latitude | Longitude | Altitude | Speed | Heading |
|---|---|---|---|---|---|
| 2026-04-30 14:51 | 55.62672 | 12.64429 | 21 ft | 0 kts | 101° |
| 2026-04-30 14:59 | 55.62676 | 12.64392 | 21 ft | 2 kts | 112° |
| 2026-04-30 15:00 | 55.62712 | 12.64352 | 21 ft | 2 kts | 187° |
| 2026-04-30 15:00 | 55.62719 | 12.64354 | 21 ft | 3 kts | 202° |
| 2026-04-30 15:01 | 55.62699 | 12.64338 | 21 ft | 0 kts | 202° |
| 2026-04-30 15:03 | 55.62660 | 12.64310 | 21 ft | 8 kts | 202° |
| 2026-04-30 15:03 | 55.62545 | 12.64206 | 21 ft | 10 kts | 182° |
| 2026-04-30 15:04 | 55.62436 | 12.64414 | 21 ft | 13 kts | 131° |
| 2026-04-30 15:04 | 55.62147 | 12.64426 | 21 ft | 15 kts | 170° |
| 2026-04-30 15:05 | 55.61818 | 12.64534 | 22 ft | 16 kts | 169° |
| 2026-04-30 15:06 | 55.61597 | 12.64478 | 22 ft | 17 kts | 213° |
| 2026-04-30 15:06 | 55.61396 | 12.64246 | 22 ft | 17 kts | 212° |
| 2026-04-30 15:07 | 55.61190 | 12.64003 | 22 ft | 18 kts | 214° |
| 2026-04-30 15:07 | 55.60976 | 12.63764 | 22 ft | 18 kts | 213° |
| 2026-04-30 15:08 | 55.60759 | 12.63641 | 22 ft | 18 kts | 133° |
| 2026-04-30 15:08 | 55.61085 | 12.64501 | 24 ft | 97 kts | 42° |
| 2026-04-30 15:09 | 55.62585 | 12.66805 | 428 ft | 166 kts | 39° |
| 2026-04-30 15:09 | 55.64311 | 12.69517 | 1867 ft | 166 kts | 36° |
| 2026-04-30 15:10 | 55.66414 | 12.71514 | 2826 ft | 189 kts | 358° |
| 2026-04-30 15:11 | 55.72463 | 12.69775 | 5126 ft | 249 kts | 356° |
| 2026-04-30 15:11 | 55.75932 | 12.69333 | 6864 ft | 257 kts | 358° |
| 2026-04-30 15:12 | 55.81295 | 12.68322 | 9424 ft | 271 kts | 339° |
| 2026-04-30 15:13 | 55.83766 | 12.63161 | 10947 ft | 297 kts | 297° |
| 2026-04-30 15:14 | 55.87023 | 12.48297 | 13213 ft | 339 kts | 296° |
| 2026-04-30 15:14 | 55.89669 | 12.36441 | 15347 ft | 349 kts | 299° |
| 2026-04-30 15:16 | 55.96330 | 12.18258 | 18693 ft | 359 kts | 309° |
| 2026-04-30 15:17 | 56.02107 | 12.03625 | 21230 ft | 365 kts | 312° |
| 2026-04-30 15:18 | 56.12360 | 11.90904 | 24069 ft | 367 kts | 333° |
| 2026-04-30 15:19 | 56.19072 | 11.84112 | 25617 ft | 375 kts | 333° |